Hatchechubbee, Alabama
Current Conditions -  °F | °C
As of 10:58 AM on Tuesday 27 Jan 2015 (Local Time) from KLSF Reporting Station
Clear Clear  
Wind Chill: 56°   Ceiling: Unl
Heat Index: 56°   Visibility: 10mi
Dew Point: 34°   Wind: 18mph
Humidity: 44%   Direction: 320°NW
Pressure: 29.98"   Gusts: 25mph
Location:  32.27°N, 85.28°W
Report Text: KLSF 271658Z AUTO 32016G22KT 10SM CLR 13/01 A2998 RMK AO2 SLP156 T01330012
Loading
Personal Weather Stations






























Interactive Weather Map New forecast layout! Learn more

10-Day Weather Forecast

Advertisements
Track Severe Weather on mobile